createdAt,value
2023-05-17T00:03:54.408Z,100740.78
2023-05-17T00:09:01.764Z,100745.53
2023-05-17T00:14:08.630Z,100753.09
2023-05-17T00:19:13.835Z,100752.63
2023-05-17T00:24:18.270Z,100754.97
2023-05-17T00:29:25.207Z,100763.16
2023-05-17T00:34:31.798Z,100759.28
2023-05-17T00:39:42.236Z,100761.63
2023-05-17T00:44:49.552Z,100758.38
2023-05-17T00:49:58.458Z,100751.00
2023-05-17T00:55:05.688Z,100754.91
2023-05-17T01:00:22.913Z,100757.81
2023-05-17T01:05:33.244Z,100757.34
2023-05-17T01:10:48.577Z,100747.22
2023-05-17T01:16:01.505Z,100760.50
2023-05-17T01:21:21.891Z,100766.88
2023-05-17T01:26:40.693Z,100762.94
2023-05-17T01:31:50.602Z,100774.63
2023-05-17T01:36:58.831Z,100778.50
2023-05-17T01:42:15.578Z,100773.50
2023-05-17T01:47:30.471Z,100774.66
2023-05-17T01:52:40.621Z,100776.88
2023-05-17T01:57:54.756Z,100785.13
2023-05-17T02:02:59.797Z,100787.53
2023-05-17T02:08:04.942Z,100788.78
2023-05-17T02:13:12.179Z,100792.56
2023-05-17T02:18:16.527Z,100787.88
2023-05-17T02:23:25.242Z,100792.53
2023-05-17T02:28:32.032Z,100800.69
2023-05-17T02:33:36.786Z,100794.00
2023-05-17T02:38:41.928Z,100784.72
2023-05-17T02:43:49.889Z,100783.28
2023-05-17T02:48:54.584Z,100791.59
2023-05-17T02:53:59.227Z,100793.56
2023-05-17T02:59:06.184Z,100800.75
2023-05-17T03:04:14.940Z,100802.97
2023-05-17T03:09:23.444Z,100808.25
2023-05-17T03:14:41.032Z,100819.69
2023-05-17T03:19:47.376Z,100810.44
2023-05-17T03:24:54.593Z,100808.75
2023-05-17T03:30:01.317Z,100819.09
2023-05-17T03:35:07.577Z,100823.56
2023-05-17T03:40:12.828Z,100832.28
2023-05-17T03:45:19.620Z,100837.63
2023-05-17T03:50:24.936Z,100840.22
2023-05-17T03:55:31.703Z,100840.97
2023-05-17T04:00:38.120Z,100849.94
2023-05-17T04:05:42.837Z,100863.84
2023-05-17T04:11:14.256Z,100859.06
2023-05-17T04:16:21.451Z,100860.03
2023-05-17T04:21:26.652Z,100867.31
2023-05-17T04:26:35.151Z,100890.06
2023-05-17T04:31:43.001Z,100886.44
2023-05-17T04:36:49.419Z,100896.31
2023-05-17T04:41:55.561Z,100894.75
2023-05-17T04:47:07.766Z,100886.66
2023-05-17T04:52:16.822Z,100894.19
2023-05-17T04:57:21.877Z,100900.16
2023-05-17T05:02:29.475Z,100893.59
2023-05-17T05:07:33.779Z,100896.06
2023-05-17T05:12:41.802Z,100888.41
2023-05-17T05:17:50.600Z,100895.75
2023-05-17T05:23:01.131Z,100894.03
2023-05-17T05:28:15.372Z,100902.00
2023-05-17T05:33:27.210Z,100914.47
2023-05-17T05:38:39.097Z,100919.34
2023-05-17T05:43:45.044Z,100933.50
2023-05-17T05:48:59.889Z,100937.97
2023-05-17T05:54:03.881Z,100942.03
2023-05-17T05:59:13.362Z,100952.22
2023-05-17T06:04:22.711Z,100948.94
2023-05-17T06:09:43.102Z,100951.34
2023-05-17T06:14:47.270Z,100953.81
2023-05-17T06:25:53.658Z,100956.47
2023-05-17T06:30:59.197Z,100939.84
2023-05-17T06:36:04.923Z,100946.28
2023-05-17T06:41:12.724Z,100948.06
2023-05-17T06:46:21.678Z,100956.78
2023-05-17T06:51:25.655Z,100969.31
2023-05-17T06:56:35.314Z,100968.34
2023-05-17T07:01:47.816Z,100962.13
2023-05-17T07:06:56.792Z,100968.03
2023-05-17T07:12:10.452Z,100964.09
2023-05-17T07:17:32.151Z,100960.97
2023-05-17T07:22:39.248Z,100979.72
2023-05-17T07:27:47.433Z,100989.56
2023-05-17T07:32:54.372Z,101004.72
2023-05-17T07:38:08.898Z,100993.22
2023-05-17T07:43:15.742Z,100985.53
2023-05-17T07:48:20.226Z,100984.13
2023-05-17T07:53:25.961Z,100989.06
2023-05-17T07:58:31.407Z,101003.25
2023-05-17T08:03:48.265Z,101004.75
2023-05-17T08:09:05.033Z,101000.59
2023-05-17T08:14:10.523Z,100995.81
2023-05-17T08:19:17.403Z,100996.94
2023-05-17T08:24:27.416Z,100998.25
2023-05-17T08:29:38.797Z,101006.28
2023-05-17T08:34:49.427Z,101028.38
2023-05-17T08:39:55.185Z,101031.56
2023-05-17T08:45:09.034Z,101018.06
2023-05-17T08:50:28.407Z,101024.69
2023-05-17T08:55:36.576Z,101046.44
2023-05-17T09:00:46.620Z,101037.97
2023-05-17T09:05:55.108Z,101029.44
2023-05-17T09:11:06.645Z,101031.09
2023-05-17T09:16:18.204Z,101033.00
2023-05-17T09:21:23.738Z,101026.81
2023-05-17T09:26:28.095Z,101039.78
2023-05-17T09:31:35.314Z,101030.06
2023-05-17T09:36:44.332Z,101027.94
2023-05-17T09:41:51.952Z,101039.59
2023-05-17T09:47:00.352Z,101046.91
2023-05-17T09:52:10.612Z,101038.97
2023-05-17T09:57:17.827Z,101044.03
2023-05-17T10:02:37.342Z,101053.56
2023-05-17T10:07:43.287Z,101053.56
2023-05-17T10:12:52.575Z,101054.19
2023-05-17T10:18:01.599Z,101055.31
2023-05-17T10:23:08.428Z,101068.63
2023-05-17T10:28:15.508Z,101071.22
2023-05-17T10:33:22.466Z,101071.50
2023-05-17T10:38:41.742Z,101079.50
2023-05-17T10:43:49.508Z,101071.84
2023-05-17T10:48:59.332Z,101077.88
2023-05-17T10:54:11.148Z,101086.34
2023-05-17T10:59:25.983Z,101083.81
2023-05-17T11:04:42.510Z,101081.53
2023-05-17T11:09:48.352Z,101072.53
2023-05-17T11:14:57.349Z,101062.91
2023-05-17T11:20:27.864Z,101059.50
2023-05-17T11:25:36.408Z,101059.50
2023-05-17T11:30:51.913Z,101064.06
2023-05-17T11:36:22.204Z,101060.47
2023-05-17T11:41:28.828Z,101058.38
2023-05-17T11:46:36.333Z,101062.00
2023-05-17T11:51:43.694Z,101064.00
2023-05-17T11:56:53.421Z,101062.03
2023-05-17T12:02:02.723Z,101057.59
2023-05-17T12:07:15.479Z,101060.34
2023-05-17T12:12:22.238Z,101066.84
2023-05-17T12:17:38.491Z,101058.81
2023-05-17T12:23:03.769Z,101059.47
2023-05-17T12:28:19.415Z,101064.19
2023-05-17T12:33:24.619Z,101054.09
2023-05-17T12:38:38.132Z,101061.59
2023-05-17T12:43:45.868Z,101055.63
2023-05-17T12:48:54.937Z,101051.41
2023-05-17T12:54:05.831Z,101049.34
2023-05-17T12:59:37.144Z,101046.25
2023-05-17T13:04:42.193Z,101046.91
2023-05-17T13:09:59.612Z,101034.75
2023-05-17T13:15:13.171Z,101036.19
2023-05-17T13:20:36.511Z,101035.22
2023-05-17T13:25:43.450Z,101043.47
2023-05-17T13:30:52.303Z,101037.06
2023-05-17T13:35:59.857Z,101043.94
2023-05-17T13:41:12.534Z,101033.94
2023-05-17T13:46:18.666Z,101040.72
2023-05-17T13:51:26.435Z,101032.94
2023-05-17T13:56:33.892Z,101030.34
2023-05-17T14:01:40.365Z,101031.13
2023-05-17T14:06:49.230Z,101044.94
2023-05-17T14:11:59.749Z,101032.91
2023-05-17T14:17:08.588Z,101038.28
2023-05-17T14:22:16.781Z,101044.16
2023-05-17T14:27:37.986Z,101044.88
2023-05-17T14:32:43.486Z,101057.28
2023-05-17T14:37:48.086Z,101048.38
2023-05-17T14:42:56.907Z,101063.06
2023-05-17T14:48:08.393Z,101055.63
2023-05-17T14:53:15.971Z,101059.97
2023-05-17T14:58:26.865Z,101065.41
2023-05-17T15:03:54.367Z,101068.94
2023-05-17T15:09:06.039Z,101072.47
2023-05-17T15:14:13.763Z,101079.94
2023-05-17T15:19:20.605Z,101079.31
2023-05-17T15:24:26.039Z,101071.94
2023-05-17T15:29:38.983Z,101070.34
2023-05-17T15:34:45.590Z,101070.66
2023-05-17T15:39:55.410Z,101062.06
2023-05-17T15:45:03.212Z,101064.44
2023-05-17T15:50:09.868Z,101067.84
2023-05-17T15:55:18.152Z,101067.47
2023-05-17T16:00:26.343Z,101063.03
2023-05-17T16:05:34.830Z,101067.03
2023-05-17T16:10:46.136Z,101068.75
2023-05-17T16:15:53.258Z,101055.97
2023-05-17T16:21:08.062Z,101070.22
2023-05-17T16:26:15.611Z,101061.28
2023-05-17T16:31:27.037Z,101064.34
2023-05-17T16:36:39.627Z,101070.91
2023-05-17T16:41:45.071Z,101060.91
2023-05-17T16:47:28.754Z,101076.91
2023-05-17T16:52:33.259Z,101072.31
2023-05-17T16:57:42.129Z,101077.88
2023-05-17T17:02:55.087Z,101080.28
2023-05-17T17:08:03.577Z,101087.63
2023-05-17T17:13:08.921Z,101080.00
2023-05-17T17:18:20.194Z,101093.50
2023-05-17T17:23:26.288Z,101081.81
2023-05-17T17:28:31.316Z,101085.59
2023-05-17T17:33:42.750Z,101098.34
2023-05-17T17:38:48.570Z,101096.44
2023-05-17T17:44:08.469Z,101094.75
2023-05-17T17:49:14.779Z,101104.91
2023-05-17T17:54:19.300Z,101104.75
2023-05-17T17:59:28.574Z,101102.84
2023-05-17T18:04:39.951Z,101113.13
2023-05-17T18:09:45.627Z,101120.19
2023-05-17T18:15:00.203Z,101123.50
2023-05-17T18:20:08.777Z,101127.69
2023-05-17T18:25:22.270Z,101132.91
2023-05-17T18:30:28.963Z,101134.09
2023-05-17T18:35:46.312Z,101139.34
2023-05-17T18:40:58.490Z,101150.00
2023-05-17T18:46:05.365Z,101157.03
2023-05-17T18:51:11.957Z,101163.22
2023-05-17T18:56:23.407Z,101173.81
2023-05-17T19:01:28.789Z,101175.59
2023-05-17T19:06:37.318Z,101189.66
2023-05-17T19:11:42.664Z,101190.69
2023-05-17T19:16:59.080Z,101190.63
2023-05-17T19:22:05.899Z,101203.78
2023-05-17T19:27:20.538Z,101201.22
2023-05-17T19:32:25.894Z,101202.22
2023-05-17T19:37:35.286Z,101210.84
2023-05-17T19:42:51.933Z,101215.31
2023-05-17T19:47:57.047Z,101211.88
2023-05-17T19:53:05.043Z,101221.34
2023-05-17T19:58:11.031Z,101228.06
2023-05-17T20:03:18.339Z,101234.97
2023-05-17T20:08:24.389Z,101238.91
2023-05-17T20:13:30.011Z,101244.66
2023-05-17T20:18:40.897Z,101245.03
2023-05-17T20:23:51.827Z,101259.59
2023-05-17T20:28:59.472Z,101258.50
2023-05-17T20:34:04.452Z,101266.00
2023-05-17T20:39:11.744Z,101259.41
2023-05-17T20:44:30.473Z,101266.91
2023-05-17T20:49:38.935Z,101275.38
2023-05-17T20:54:48.321Z,101275.00
2023-05-17T20:59:53.776Z,101266.41
2023-05-17T21:05:01.516Z,101271.19
2023-05-17T21:10:09.528Z,101276.66
2023-05-17T21:15:17.413Z,101270.09
2023-05-17T21:20:23.071Z,101274.25
2023-05-17T21:25:30.352Z,101266.72
2023-05-17T21:30:35.621Z,101267.03
2023-05-17T21:35:39.658Z,101269.91
2023-05-17T21:40:48.001Z,101272.75
2023-05-17T21:45:53.883Z,101273.09
2023-05-17T21:50:58.416Z,101282.38
2023-05-17T21:56:09.078Z,101281.88
2023-05-17T22:01:13.814Z,101298.97
2023-05-17T22:06:19.869Z,101286.19
2023-05-17T22:11:27.853Z,101296.09
2023-05-17T22:16:35.371Z,101292.13
2023-05-17T22:21:42.737Z,101287.31
2023-05-17T22:26:49.776Z,101296.56
2023-05-17T22:31:55.174Z,101299.50
2023-05-17T22:37:02.823Z,101300.59
2023-05-17T22:42:11.366Z,101313.28
2023-05-17T22:47:18.333Z,101307.41
2023-05-17T22:52:24.429Z,101318.06
2023-05-17T22:57:30.845Z,101315.78
2023-05-17T23:02:35.380Z,101317.97
2023-05-17T23:07:40.141Z,101319.38
2023-05-17T23:12:46.794Z,101314.66
2023-05-17T23:17:53.572Z,101318.97
2023-05-17T23:23:00.402Z,101325.56
2023-05-17T23:28:07.639Z,101320.03
2023-05-17T23:33:13.122Z,101318.16
2023-05-17T23:38:17.771Z,101327.25
2023-05-17T23:43:25.417Z,101322.31
2023-05-17T23:48:30.810Z,101329.22
2023-05-17T23:53:38.369Z,101331.59
2023-05-17T23:58:45.554Z,101328.75
